Airfield :
LOGIN :

Register | Disclaimer

   EN    FR    IT 

 










Legend :    VFR   Marginal VFR   IFR   Intensive IFR   Very Intensive IFR
Visi :
Ceiling :
>= 8 km
>= 3000ft
5 to 8 km
1000 to 3000 ft
1500m to 5 km
500 to 1000 ft
800 to 1500m
200 to 500 ft
< 800m
< 200 ft
Symbols :   Thunderstorms  Fog  Heavy snow  Heavy precipitations  Wind > 20 kt
SIGMETs :     Misc.  Thunderstorms  Icing  Turbulence  Mountain Waves  Volcanic Ashes







- Airport Elevation : 202 ft
- IATA code : LGW
- Download approach charts


EGKK - London Gatwick

CURRENT METAR :
  • 231350Z 06020KT 9999 BKN025 10/05 Q1014

EXPIRED METARs :
  • 231320Z 06020KT 9999 SCT024 10/05 Q1014
  • 231250Z 06021KT 9999 SCT023 SCT028 10/05 Q1014
  • 231220Z 06017KT 9999 SCT024 BKN031 10/05 Q1014
  • 231150Z 06017KT 9999 BKN024 10/05 Q1014
  • 231120Z 06019KT 9999 FEW026 10/05 Q1013
  • 231050Z 06017KT 9999 FEW023 SCT029 10/05 Q1013

TAF TAF EGKK
Valid from the 23 at 12:00 until the 24 at 18:00 UTC


231052Z 2312/2418 07015G25KT 9999 FEW024
PROB30
TEMPO 2400/2404 BKN012
BECMG 2401/2404 06012KT
TEMPO 2404/2410 BKN012
PROB30
TEMPO 2404/2409 7000 -RA
PROB30
TEMPO 2415/2418 05015G25KT
No reported NOTAMs for that airfield.
2 SIGMETs reported for the London FIR (EGTT) :
 
Severe turbulence
EGTT SIGMET 03 VALID 231215/231615 EGRR
EGTT LONDON FIR SEV TURB FCST S OF LINE N4931 W00800 - N5040 E00127 SFC/FL060 MOV N 05KT INTSF=
Severe turbulence
EGTT SIGMET 02 VALID 231215/231615 EGRR
EGTT LONDON FIR SEV TURB FCST NW OF LINE N5500 E00133 - N5237 W00530 FL240/330 MOV SE 05KT NC=



MET'MAP, your aeronautical weather chart ! - Copyright ORBIFLY December 2007 - Disclaimer

ORBIFLY MET'MAP TEAM :

Programming & Development : Alexandra Zaïnal
Concept & Development : Baudouin d'Aumeries
Co-Development & Prog : Marc-Olivier Méhu
Technical & hardware support : Manuel Goepfert

Contact : metmap@orbifly.com




SOURCES & CREDITS :

   NOAA